sensor_id;sensor_type;location;lat;lon;timestamp;temperature;humidity
38265;DHT22;24062;47.480;8.768;2022-09-02T00:01:12;13.60;60.60
38265;DHT22;24062;47.480;8.768;2022-09-02T00:03:39;13.40;60.60
38265;DHT22;24062;47.480;8.768;2022-09-02T00:06:06;13.40;60.50
38265;DHT22;24062;47.480;8.768;2022-09-02T00:08:33;13.30;60.70
38265;DHT22;24062;47.480;8.768;2022-09-02T00:11:01;13.30;60.70
38265;DHT22;24062;47.480;8.768;2022-09-02T00:13:32;13.30;60.70
38265;DHT22;24062;47.480;8.768;2022-09-02T00:15:59;13.30;60.80
38265;DHT22;24062;47.480;8.768;2022-09-02T00:18:28;13.30;61.00
38265;DHT22;24062;47.480;8.768;2022-09-02T00:20:55;13.20;61.10
38265;DHT22;24062;47.480;8.768;2022-09-02T00:23:22;13.30;61.40
38265;DHT22;24062;47.480;8.768;2022-09-02T00:25:49;13.20;61.30
38265;DHT22;24062;47.480;8.768;2022-09-02T00:28:16;13.20;61.40
38265;DHT22;24062;47.480;8.768;2022-09-02T00:30:44;13.20;61.60
38265;DHT22;24062;47.480;8.768;2022-09-02T00:33:12;13.20;61.60
38265;DHT22;24062;47.480;8.768;2022-09-02T00:35:41;13.10;61.50
38265;DHT22;24062;47.480;8.768;2022-09-02T00:38:08;13.10;61.60
38265;DHT22;24062;47.480;8.768;2022-09-02T00:40:36;13.10;61.80
38265;DHT22;24062;47.480;8.768;2022-09-02T00:43:05;13.10;61.80
38265;DHT22;24062;47.480;8.768;2022-09-02T00:45:33;13.00;61.80
38265;DHT22;24062;47.480;8.768;2022-09-02T00:47:59;13.00;62.00
38265;DHT22;24062;47.480;8.768;2022-09-02T00:50:29;13.00;62.10
38265;DHT22;24062;47.480;8.768;2022-09-02T00:53:03;13.00;62.30
38265;DHT22;24062;47.480;8.768;2022-09-02T00:55:34;12.90;62.20
38265;DHT22;24062;47.480;8.768;2022-09-02T00:58:05;12.90;62.20
38265;DHT22;24062;47.480;8.768;2022-09-02T01:00:35;12.90;62.40
38265;DHT22;24062;47.480;8.768;2022-09-02T01:03:07;12.90;62.50
38265;DHT22;24062;47.480;8.768;2022-09-02T01:05:36;12.90;62.60
38265;DHT22;24062;47.480;8.768;2022-09-02T01:08:05;12.90;62.70
38265;DHT22;24062;47.480;8.768;2022-09-02T01:10:35;12.80;62.60
38265;DHT22;24062;47.480;8.768;2022-09-02T01:13:06;12.80;62.80
38265;DHT22;24062;47.480;8.768;2022-09-02T01:15:34;12.80;62.90
38265;DHT22;24062;47.480;8.768;2022-09-02T01:18:03;12.80;63.00
38265;DHT22;24062;47.480;8.768;2022-09-02T01:20:31;12.80;63.10
38265;DHT22;24062;47.480;8.768;2022-09-02T01:23:00;12.80;63.10
38265;DHT22;24062;47.480;8.768;2022-09-02T01:25:29;12.70;63.10
38265;DHT22;24062;47.480;8.768;2022-09-02T01:27:58;12.70;63.30
38265;DHT22;24062;47.480;8.768;2022-09-02T01:30:26;12.70;63.30
38265;DHT22;24062;47.480;8.768;2022-09-02T01:32:53;12.60;63.20
38265;DHT22;24062;47.480;8.768;2022-09-02T01:35:20;12.60;63.40
38265;DHT22;24062;47.480;8.768;2022-09-02T01:37:47;12.60;63.40
38265;DHT22;24062;47.480;8.768;2022-09-02T01:40:16;12.60;63.60
38265;DHT22;24062;47.480;8.768;2022-09-02T01:42:44;12.60;63.70
38265;DHT22;24062;47.480;8.768;2022-09-02T01:45:12;12.60;64.60
38265;DHT22;24062;47.480;8.768;2022-09-02T01:47:40;12.50;63.80
38265;DHT22;24062;47.480;8.768;2022-09-02T01:50:08;12.50;63.80
38265;DHT22;24062;47.480;8.768;2022-09-02T01:52:35;12.50;64.10
38265;DHT22;24062;47.480;8.768;2022-09-02T01:55:03;12.50;64.10
38265;DHT22;24062;47.480;8.768;2022-09-02T01:57:31;12.50;64.10
38265;DHT22;24062;47.480;8.768;2022-09-02T01:59:58;12.40;64.10
38265;DHT22;24062;47.480;8.768;2022-09-02T02:02:27;12.40;64.20
38265;DHT22;24062;47.480;8.768;2022-09-02T02:04:53;12.40;64.30
38265;DHT22;24062;47.480;8.768;2022-09-02T02:07:21;12.40;64.30
38265;DHT22;24062;47.480;8.768;2022-09-02T02:09:48;12.40;65.30
38265;DHT22;24062;47.480;8.768;2022-09-02T02:12:15;12.40;64.50
38265;DHT22;24062;47.480;8.768;2022-09-02T02:14:43;12.30;64.40
38265;DHT22;24062;47.480;8.768;2022-09-02T02:17:10;12.30;64.50
38265;DHT22;24062;47.480;8.768;2022-09-02T02:19:37;12.30;64.60
38265;DHT22;24062;47.480;8.768;2022-09-02T02:22:04;12.30;64.70
38265;DHT22;24062;47.480;8.768;2022-09-02T02:24:31;12.30;64.90
38265;DHT22;24062;47.480;8.768;2022-09-02T02:26:58;12.20;64.80
38265;DHT22;24062;47.480;8.768;2022-09-02T02:29:25;12.20;64.80
38265;DHT22;24062;47.480;8.768;2022-09-02T02:31:53;12.20;64.90
38265;DHT22;24062;47.480;8.768;2022-09-02T02:34:20;12.20;65.00
38265;DHT22;24062;47.480;8.768;2022-09-02T02:36:47;12.20;65.00
38265;DHT22;24062;47.480;8.768;2022-09-02T02:39:14;12.20;65.10
38265;DHT22;24062;47.480;8.768;2022-09-02T02:41:41;12.20;65.30
38265;DHT22;24062;47.480;8.768;2022-09-02T02:44:08;12.20;65.40
38265;DHT22;24062;47.480;8.768;2022-09-02T02:46:35;12.10;65.40
38265;DHT22;24062;47.480;8.768;2022-09-02T02:49:04;12.10;65.50
38265;DHT22;24062;47.480;8.768;2022-09-02T02:51:31;12.10;65.50
38265;DHT22;24062;47.480;8.768;2022-09-02T02:53:59;12.10;65.50
38265;DHT22;24062;47.480;8.768;2022-09-02T02:56:26;12.00;65.50
38265;DHT22;24062;47.480;8.768;2022-09-02T02:58:54;12.10;65.70
38265;DHT22;24062;47.480;8.768;2022-09-02T03:01:22;12.00;66.40
38265;DHT22;24062;47.480;8.768;2022-09-02T03:03:49;12.00;65.80
38265;DHT22;24062;47.480;8.768;2022-09-02T03:06:18;12.00;65.80
38265;DHT22;24062;47.480;8.768;2022-09-02T03:08:45;12.00;65.90
38265;DHT22;24062;47.480;8.768;2022-09-02T03:11:13;11.90;65.90
38265;DHT22;24062;47.480;8.768;2022-09-02T03:13:40;11.90;66.00
38265;DHT22;24062;47.480;8.768;2022-09-02T03:16:07;11.90;66.10
38265;DHT22;24062;47.480;8.768;2022-09-02T03:18:34;11.90;66.20
38265;DHT22;24062;47.480;8.768;2022-09-02T03:21:04;11.90;66.20
38265;DHT22;24062;47.480;8.768;2022-09-02T03:23:33;11.80;66.20
38265;DHT22;24062;47.480;8.768;2022-09-02T03:26:00;11.90;66.40
38265;DHT22;24062;47.480;8.768;2022-09-02T03:28:27;11.80;66.30
38265;DHT22;24062;47.480;8.768;2022-09-02T03:30:54;11.80;66.40
38265;DHT22;24062;47.480;8.768;2022-09-02T03:33:21;11.80;66.40
38265;DHT22;24062;47.480;8.768;2022-09-02T03:35:48;11.80;66.50
38265;DHT22;24062;47.480;8.768;2022-09-02T03:38:15;11.80;66.70
38265;DHT22;24062;47.480;8.768;2022-09-02T03:40:43;11.70;66.70
38265;DHT22;24062;47.480;8.768;2022-09-02T03:43:10;11.70;66.70
38265;DHT22;24062;47.480;8.768;2022-09-02T03:45:37;11.70;66.80
38265;DHT22;24062;47.480;8.768;2022-09-02T03:48:06;11.70;66.70
38265;DHT22;24062;47.480;8.768;2022-09-02T03:50:36;11.70;66.70
38265;DHT22;24062;47.480;8.768;2022-09-02T03:53:05;11.60;66.90
38265;DHT22;24062;47.480;8.768;2022-09-02T03:55:32;11.60;66.70
38265;DHT22;24062;47.480;8.768;2022-09-02T03:58:01;11.70;66.90
38265;DHT22;24062;47.480;8.768;2022-09-02T04:00:28;11.60;66.90
38265;DHT22;24062;47.480;8.768;2022-09-02T04:02:56;11.60;66.90
38265;DHT22;24062;47.480;8.768;2022-09-02T04:05:24;11.60;67.00
38265;DHT22;24062;47.480;8.768;2022-09-02T04:07:51;11.60;67.10
38265;DHT22;24062;47.480;8.768;2022-09-02T04:10:18;11.60;67.20
38265;DHT22;24062;47.480;8.768;2022-09-02T04:12:46;11.60;67.20
38265;DHT22;24062;47.480;8.768;2022-09-02T04:15:14;11.50;67.00
38265;DHT22;24062;47.480;8.768;2022-09-02T04:17:41;11.50;67.00
38265;DHT22;24062;47.480;8.768;2022-09-02T04:20:11;11.70;67.30
38265;DHT22;24062;47.480;8.768;2022-09-02T04:22:39;11.50;67.20
38265;DHT22;24062;47.480;8.768;2022-09-02T04:25:07;11.60;67.40
38265;DHT22;24062;47.480;8.768;2022-09-02T04:27:34;11.50;67.40
38265;DHT22;24062;47.480;8.768;2022-09-02T04:30:01;11.60;67.50
38265;DHT22;24062;47.480;8.768;2022-09-02T04:32:30;11.40;67.30
38265;DHT22;24062;47.480;8.768;2022-09-02T04:34:57;11.50;67.50
38265;DHT22;24062;47.480;8.768;2022-09-02T04:37:24;11.40;67.40
38265;DHT22;24062;47.480;8.768;2022-09-02T04:39:52;11.40;67.40
38265;DHT22;24062;47.480;8.768;2022-09-02T04:42:18;11.40;67.60
38265;DHT22;24062;47.480;8.768;2022-09-02T04:44:45;11.30;67.40
38265;DHT22;24062;47.480;8.768;2022-09-02T04:47:12;11.30;67.50
38265;DHT22;24062;47.480;8.768;2022-09-02T04:49:41;11.40;67.70
38265;DHT22;24062;47.480;8.768;2022-09-02T04:52:08;11.30;67.60
38265;DHT22;24062;47.480;8.768;2022-09-02T04:54:36;11.40;67.80
38265;DHT22;24062;47.480;8.768;2022-09-02T04:57:03;11.40;67.90
38265;DHT22;24062;47.480;8.768;2022-09-02T04:59:30;11.40;67.90
38265;DHT22;24062;47.480;8.768;2022-09-02T05:01:57;11.40;68.00
38265;DHT22;24062;47.480;8.768;2022-09-02T05:04:24;11.40;68.10
38265;DHT22;24062;47.480;8.768;2022-09-02T05:06:52;11.40;68.20
38265;DHT22;24062;47.480;8.768;2022-09-02T05:09:22;11.50;68.30
38265;DHT22;24062;47.480;8.768;2022-09-02T05:11:49;11.50;68.30
38265;DHT22;24062;47.480;8.768;2022-09-02T05:14:16;11.50;68.40
38265;DHT22;24062;47.480;8.768;2022-09-02T05:16:43;11.60;68.50
38265;DHT22;24062;47.480;8.768;2022-09-02T05:19:10;11.60;68.50
38265;DHT22;24062;47.480;8.768;2022-09-02T05:21:39;11.60;69.00
38265;DHT22;24062;47.480;8.768;2022-09-02T05:24:08;11.60;68.70
38265;DHT22;24062;47.480;8.768;2022-09-02T05:26:35;11.70;68.90
38265;DHT22;24062;47.480;8.768;2022-09-02T05:29:03;11.70;68.90
38265;DHT22;24062;47.480;8.768;2022-09-02T05:31:31;11.80;69.10
38265;DHT22;24062;47.480;8.768;2022-09-02T05:33:58;11.90;69.30
38265;DHT22;24062;47.480;8.768;2022-09-02T05:36:25;11.90;69.40
38265;DHT22;24062;47.480;8.768;2022-09-02T05:38:52;12.20;69.70
38265;DHT22;24062;47.480;8.768;2022-09-02T05:41:22;12.20;69.60
38265;DHT22;24062;47.480;8.768;2022-09-02T05:43:49;12.30;69.70
38265;DHT22;24062;47.480;8.768;2022-09-02T05:46:19;12.40;69.80
38265;DHT22;24062;47.480;8.768;2022-09-02T05:48:48;12.50;69.90
38265;DHT22;24062;47.480;8.768;2022-09-02T05:51:38;12.60;70.10
38265;DHT22;24062;47.480;8.768;2022-09-02T05:54:07;12.80;70.30
38265;DHT22;24062;47.480;8.768;2022-09-02T05:56:38;12.80;70.30
38265;DHT22;24062;47.480;8.768;2022-09-02T05:59:05;13.00;70.60
38265;DHT22;24062;47.480;8.768;2022-09-02T06:01:33;13.10;70.70
38265;DHT22;24062;47.480;8.768;2022-09-02T06:04:00;13.20;70.80
38265;DHT22;24062;47.480;8.768;2022-09-02T06:06:27;13.30;70.80
38265;DHT22;24062;47.480;8.768;2022-09-02T06:08:54;13.40;70.90
38265;DHT22;24062;47.480;8.768;2022-09-02T06:11:21;13.60;71.10
38265;DHT22;24062;47.480;8.768;2022-09-02T06:13:51;13.70;71.30
38265;DHT22;24062;47.480;8.768;2022-09-02T06:16:21;13.80;71.30
38265;DHT22;24062;47.480;8.768;2022-09-02T06:18:49;14.00;71.50
38265;DHT22;24062;47.480;8.768;2022-09-02T06:21:17;14.10;71.60
38265;DHT22;24062;47.480;8.768;2022-09-02T06:23:46;14.20;71.70
38265;DHT22;24062;47.480;8.768;2022-09-02T06:26:14;14.40;71.90
38265;DHT22;24062;47.480;8.768;2022-09-02T06:28:41;14.50;71.90
38265;DHT22;24062;47.480;8.768;2022-09-02T06:31:12;14.70;72.10
38265;DHT22;24062;47.480;8.768;2022-09-02T06:33:40;14.90;72.30
38265;DHT22;24062;47.480;8.768;2022-09-02T06:36:09;15.10;72.20
38265;DHT22;24062;47.480;8.768;2022-09-02T06:38:37;15.30;72.20
38265;DHT22;24062;47.480;8.768;2022-09-02T06:41:05;15.60;72.10
38265;DHT22;24062;47.480;8.768;2022-09-02T06:43:32;15.90;72.10
38265;DHT22;24062;47.480;8.768;2022-09-02T06:45:59;16.00;72.30
38265;DHT22;24062;47.480;8.768;2022-09-02T06:48:28;16.30;72.50
38265;DHT22;24062;47.480;8.768;2022-09-02T06:50:54;16.50;72.50
38265;DHT22;24062;47.480;8.768;2022-09-02T06:53:22;16.60;72.60
38265;DHT22;24062;47.480;8.768;2022-09-02T06:55:49;16.80;72.60
38265;DHT22;24062;47.480;8.768;2022-09-02T06:58:16;17.00;72.60
38265;DHT22;24062;47.480;8.768;2022-09-02T07:00:44;17.10;72.60
38265;DHT22;24062;47.480;8.768;2022-09-02T07:03:11;17.30;72.80
38265;DHT22;24062;47.480;8.768;2022-09-02T07:06:02;17.40;72.70
38265;DHT22;24062;47.480;8.768;2022-09-02T07:08:34;17.50;73.00
38265;DHT22;24062;47.480;8.768;2022-09-02T07:11:01;17.60;73.10
38265;DHT22;24062;47.480;8.768;2022-09-02T07:13:28;17.70;73.20
38265;DHT22;24062;47.480;8.768;2022-09-02T07:15:54;17.80;73.30
38265;DHT22;24062;47.480;8.768;2022-09-02T07:18:21;17.80;73.40
38265;DHT22;24062;47.480;8.768;2022-09-02T07:20:48;17.80;73.60
38265;DHT22;24062;47.480;8.768;2022-09-02T07:23:17;17.90;74.00
38265;DHT22;24062;47.480;8.768;2022-09-02T07:25:45;18.00;74.30
38265;DHT22;24062;47.480;8.768;2022-09-02T07:28:12;18.30;74.60
38265;DHT22;24062;47.480;8.768;2022-09-02T07:30:40;18.20;74.10
38265;DHT22;24062;47.480;8.768;2022-09-02T07:33:08;18.20;73.50
38265;DHT22;24062;47.480;8.768;2022-09-02T07:35:38;18.30;74.00
38265;DHT22;24062;47.480;8.768;2022-09-02T07:38:06;18.40;74.30
38265;DHT22;24062;47.480;8.768;2022-09-02T07:40:35;18.50;74.40
38265;DHT22;24062;47.480;8.768;2022-09-02T07:43:02;18.70;74.30
38265;DHT22;24062;47.480;8.768;2022-09-02T07:45:30;18.80;74.10
38265;DHT22;24062;47.480;8.768;2022-09-02T07:47:57;18.90;74.10
38265;DHT22;24062;47.480;8.768;2022-09-02T07:50:25;19.00;73.70
38265;DHT22;24062;47.480;8.768;2022-09-02T07:52:53;19.00;73.70
38265;DHT22;24062;47.480;8.768;2022-09-02T07:55:21;19.10;73.90
38265;DHT22;24062;47.480;8.768;2022-09-02T07:57:50;19.20;73.70
38265;DHT22;24062;47.480;8.768;2022-09-02T08:00:19;19.30;73.60
38265;DHT22;24062;47.480;8.768;2022-09-02T08:02:47;19.40;73.70
38265;DHT22;24062;47.480;8.768;2022-09-02T08:05:14;19.50;73.60
38265;DHT22;24062;47.480;8.768;2022-09-02T08:07:41;19.60;73.50
38265;DHT22;24062;47.480;8.768;2022-09-02T08:10:09;19.70;73.50
38265;DHT22;24062;47.480;8.768;2022-09-02T08:12:37;19.90;73.50
38265;DHT22;24062;47.480;8.768;2022-09-02T08:15:07;20.00;73.30
38265;DHT22;24062;47.480;8.768;2022-09-02T08:17:35;20.10;73.30
38265;DHT22;24062;47.480;8.768;2022-09-02T08:20:06;20.20;72.70
38265;DHT22;24062;47.480;8.768;2022-09-02T08:22:33;20.30;72.80
38265;DHT22;24062;47.480;8.768;2022-09-02T08:25:01;20.30;72.40
38265;DHT22;24062;47.480;8.768;2022-09-02T08:27:28;20.40;72.20
38265;DHT22;24062;47.480;8.768;2022-09-02T08:29:55;20.40;71.60
38265;DHT22;24062;47.480;8.768;2022-09-02T08:32:23;20.30;71.50
38265;DHT22;24062;47.480;8.768;2022-09-02T08:34:50;20.30;70.90
38265;DHT22;24062;47.480;8.768;2022-09-02T08:37:17;20.30;70.70
38265;DHT22;24062;47.480;8.768;2022-09-02T08:39:44;20.30;70.80
38265;DHT22;24062;47.480;8.768;2022-09-02T08:42:20;20.30;70.70
38265;DHT22;24062;47.480;8.768;2022-09-02T08:44:49;20.30;70.60
38265;DHT22;24062;47.480;8.768;2022-09-02T08:47:22;20.40;70.80
38265;DHT22;24062;47.480;8.768;2022-09-02T08:49:54;20.50;70.80
38265;DHT22;24062;47.480;8.768;2022-09-02T08:52:27;20.60;70.20
38265;DHT22;24062;47.480;8.768;2022-09-02T08:54:56;20.60;70.20
38265;DHT22;24062;47.480;8.768;2022-09-02T08:57:24;20.80;70.70
38265;DHT22;24062;47.480;8.768;2022-09-02T08:59:52;21.00;70.90
38265;DHT22;24062;47.480;8.768;2022-09-02T09:02:28;21.20;70.80
38265;DHT22;24062;47.480;8.768;2022-09-02T09:05:06;21.30;70.20
38265;DHT22;24062;47.480;8.768;2022-09-02T09:07:40;21.40;70.40
38265;DHT22;24062;47.480;8.768;2022-09-02T09:10:16;21.50;69.90
38265;DHT22;24062;47.480;8.768;2022-09-02T09:13:02;21.50;69.50
38265;DHT22;24062;47.480;8.768;2022-09-02T09:15:37;21.50;69.30
38265;DHT22;24062;47.480;8.768;2022-09-02T09:18:10;21.60;69.70
38265;DHT22;24062;47.480;8.768;2022-09-02T09:20:39;21.80;69.80
38265;DHT22;24062;47.480;8.768;2022-09-02T09:23:17;21.90;69.50
38265;DHT22;24062;47.480;8.768;2022-09-02T09:25:45;22.00;69.30
38265;DHT22;24062;47.480;8.768;2022-09-02T09:28:13;22.10;69.50
38265;DHT22;24062;47.480;8.768;2022-09-02T09:30:40;22.20;68.80
38265;DHT22;24062;47.480;8.768;2022-09-02T09:33:14;22.20;68.70
38265;DHT22;24062;47.480;8.768;2022-09-02T09:35:50;22.30;68.90
38265;DHT22;24062;47.480;8.768;2022-09-02T09:38:28;22.30;68.30
38265;DHT22;24062;47.480;8.768;2022-09-02T09:41:11;22.40;68.80
38265;DHT22;24062;47.480;8.768;2022-09-02T09:43:39;22.60;69.10
38265;DHT22;24062;47.480;8.768;2022-09-02T09:46:23;22.80;68.90
38265;DHT22;24062;47.480;8.768;2022-09-02T09:48:52;22.80;68.70
38265;DHT22;24062;47.480;8.768;2022-09-02T09:51:20;23.00;68.00
38265;DHT22;24062;47.480;8.768;2022-09-02T09:53:46;23.00;68.40
38265;DHT22;24062;47.480;8.768;2022-09-02T09:56:30;23.20;68.70
38265;DHT22;24062;47.480;8.768;2022-09-02T09:58:59;23.30;68.10
38265;DHT22;24062;47.480;8.768;2022-09-02T10:01:29;23.40;68.20
38265;DHT22;24062;47.480;8.768;2022-09-02T10:04:01;23.60;68.20
38265;DHT22;24062;47.480;8.768;2022-09-02T10:06:39;23.70;68.30
38265;DHT22;24062;47.480;8.768;2022-09-02T10:09:29;23.80;67.30
38265;DHT22;24062;47.480;8.768;2022-09-02T10:11:59;23.80;67.50
38265;DHT22;24062;47.480;8.768;2022-09-02T10:14:31;23.90;67.40
38265;DHT22;24062;47.480;8.768;2022-09-02T10:17:05;23.80;65.70
38265;DHT22;24062;47.480;8.768;2022-09-02T10:19:40;23.80;66.30
38265;DHT22;24062;47.480;8.768;2022-09-02T10:22:31;23.80;66.00
38265;DHT22;24062;47.480;8.768;2022-09-02T10:25:09;23.90;65.80
38265;DHT22;24062;47.480;8.768;2022-09-02T10:27:44;23.90;65.60
38265;DHT22;24062;47.480;8.768;2022-09-02T10:30:17;24.00;65.30
38265;DHT22;24062;47.480;8.768;2022-09-02T10:33:12;24.00;64.80
38265;DHT22;24062;47.480;8.768;2022-09-02T10:35:44;24.20;65.50
38265;DHT22;24062;47.480;8.768;2022-09-02T10:38:31;24.50;65.50
38265;DHT22;24062;47.480;8.768;2022-09-02T10:41:05;24.50;63.90
38265;DHT22;24062;47.480;8.768;2022-09-02T10:43:58;24.30;62.90
38265;DHT22;24062;47.480;8.768;2022-09-02T10:46:34;24.20;63.60
38265;DHT22;24062;47.480;8.768;2022-09-02T10:49:08;24.50;63.60
38265;DHT22;24062;47.480;8.768;2022-09-02T10:51:45;24.50;63.60
38265;DHT22;24062;47.480;8.768;2022-09-02T10:54:24;24.80;64.00
38265;DHT22;24062;47.480;8.768;2022-09-02T10:56:59;25.00;62.80
38265;DHT22;24062;47.480;8.768;2022-09-02T10:59:31;24.90;61.50
38265;DHT22;24062;47.480;8.768;2022-09-02T11:02:06;24.80;61.40
38265;DHT22;24062;47.480;8.768;2022-09-02T11:04:38;24.80;61.40
38265;DHT22;24062;47.480;8.768;2022-09-02T11:07:08;24.90;62.00
38265;DHT22;24062;47.480;8.768;2022-09-02T11:09:42;25.10;61.40
38265;DHT22;24062;47.480;8.768;2022-09-02T11:12:14;25.10;60.70
38265;DHT22;24062;47.480;8.768;2022-09-02T11:14:51;25.20;61.20
38265;DHT22;24062;47.480;8.768;2022-09-02T11:17:22;25.30;60.50
38265;DHT22;24062;47.480;8.768;2022-09-02T11:19:57;25.40;60.50
38265;DHT22;24062;47.480;8.768;2022-09-02T11:22:32;25.40;59.70
38265;DHT22;24062;47.480;8.768;2022-09-02T11:25:06;25.20;59.00
38265;DHT22;24062;47.480;8.768;2022-09-02T11:27:38;25.20;59.60
38265;DHT22;24062;47.480;8.768;2022-09-02T11:30:11;25.30;59.30
38265;DHT22;24062;47.480;8.768;2022-09-02T11:32:43;25.60;60.30
38265;DHT22;24062;47.480;8.768;2022-09-02T11:35:17;25.90;59.50
38265;DHT22;24062;47.480;8.768;2022-09-02T11:37:49;25.90;58.90
38265;DHT22;24062;47.480;8.768;2022-09-02T11:40:21;26.10;59.80
38265;DHT22;24062;47.480;8.768;2022-09-02T11:43:06;26.30;59.20
38265;DHT22;24062;47.480;8.768;2022-09-02T11:49:01;26.70;58.60
38265;DHT22;24062;47.480;8.768;2022-09-02T11:51:59;26.70;58.10
38265;DHT22;24062;47.480;8.768;2022-09-02T11:54:32;26.60;57.90
38265;DHT22;24062;47.480;8.768;2022-09-02T11:57:03;26.90;58.90
38265;DHT22;24062;47.480;8.768;2022-09-02T12:02:39;26.80;57.30
38265;DHT22;24062;47.480;8.768;2022-09-02T12:17:40;27.90;56.60
38265;DHT22;24062;47.480;8.768;2022-09-02T12:20:10;28.10;56.80
38265;DHT22;24062;47.480;8.768;2022-09-02T12:22:56;28.20;56.00
38265;DHT22;24062;47.480;8.768;2022-09-02T12:25:43;28.30;56.00
38265;DHT22;24062;47.480;8.768;2022-09-02T12:28:21;28.40;56.20
38265;DHT22;24062;47.480;8.768;2022-09-02T12:31:15;28.80;56.80
38265;DHT22;24062;47.480;8.768;2022-09-02T12:33:46;29.60;56.90
38265;DHT22;24062;47.480;8.768;2022-09-02T12:36:46;29.60;55.00
38265;DHT22;24062;47.480;8.768;2022-09-02T12:39:47;29.50;55.00
38265;DHT22;24062;47.480;8.768;2022-09-02T12:42:21;29.50;55.40
38265;DHT22;24062;47.480;8.768;2022-09-02T12:44:57;29.60;55.60
38265;DHT22;24062;47.480;8.768;2022-09-02T12:47:31;30.10;57.00
38265;DHT22;24062;47.480;8.768;2022-09-02T12:50:06;31.00;58.00
38265;DHT22;24062;47.480;8.768;2022-09-02T12:52:42;32.10;56.80
38265;DHT22;24062;47.480;8.768;2022-09-02T12:55:14;32.70;54.90
38265;DHT22;24062;47.480;8.768;2022-09-02T12:57:44;33.20;54.80
38265;DHT22;24062;47.480;8.768;2022-09-02T13:00:15;34.10;53.70
38265;DHT22;24062;47.480;8.768;2022-09-02T13:02:53;35.30;53.00
38265;DHT22;24062;47.480;8.768;2022-09-02T13:05:29;36.20;48.40
38265;DHT22;24062;47.480;8.768;2022-09-02T13:11:49;38.40;47.00
38265;DHT22;24062;47.480;8.768;2022-09-02T13:14:56;40.00;43.00
38265;DHT22;24062;47.480;8.768;2022-09-02T13:17:34;40.90;42.90
38265;DHT22;24062;47.480;8.768;2022-09-02T13:26:52;43.30;38.50
38265;DHT22;24062;47.480;8.768;2022-09-02T13:32:27;44.90;37.20
38265;DHT22;24062;47.480;8.768;2022-09-02T13:34:58;45.60;36.60
38265;DHT22;24062;47.480;8.768;2022-09-02T13:37:28;46.00;35.50
38265;DHT22;24062;47.480;8.768;2022-09-02T13:39:55;46.70;35.80
38265;DHT22;24062;47.480;8.768;2022-09-02T13:42:25;46.70;33.70
38265;DHT22;24062;47.480;8.768;2022-09-02T13:45:11;46.80;33.80
38265;DHT22;24062;47.480;8.768;2022-09-02T13:47:41;46.80;33.00
38265;DHT22;24062;47.480;8.768;2022-09-02T13:50:11;46.20;32.10
38265;DHT22;24062;47.480;8.768;2022-09-02T13:52:39;45.70;32.30
38265;DHT22;24062;47.480;8.768;2022-09-02T13:55:09;45.20;31.80
38265;DHT22;24062;47.480;8.768;2022-09-02T13:57:38;45.10;32.70
38265;DHT22;24062;47.480;8.768;2022-09-02T14:00:13;45.00;32.60
38265;DHT22;24062;47.480;8.768;2022-09-02T14:02:57;44.40;32.00
38265;DHT22;24062;47.480;8.768;2022-09-02T14:05:26;43.20;31.90
38265;DHT22;24062;47.480;8.768;2022-09-02T14:07:55;42.50;32.60
38265;DHT22;24062;47.480;8.768;2022-09-02T14:10:26;42.10;32.50
38265;DHT22;24062;47.480;8.768;2022-09-02T14:12:55;41.70;32.60
38265;DHT22;24062;47.480;8.768;2022-09-02T14:15:25;41.30;33.10
38265;DHT22;24062;47.480;8.768;2022-09-02T14:18:12;41.10;33.40
38265;DHT22;24062;47.480;8.768;2022-09-02T14:20:57;40.90;33.30
38265;DHT22;24062;47.480;8.768;2022-09-02T14:23:25;40.40;33.40
38265;DHT22;24062;47.480;8.768;2022-09-02T14:25:55;39.90;33.50
38265;DHT22;24062;47.480;8.768;2022-09-02T14:28:25;39.40;33.90
38265;DHT22;24062;47.480;8.768;2022-09-02T14:30:55;39.00;34.60
38265;DHT22;24062;47.480;8.768;2022-09-02T14:33:26;38.90;35.00
38265;DHT22;24062;47.480;8.768;2022-09-02T14:36:03;38.70;35.30
38265;DHT22;24062;47.480;8.768;2022-09-02T14:38:34;38.60;35.60
38265;DHT22;24062;47.480;8.768;2022-09-02T14:41:03;38.20;35.20
38265;DHT22;24062;47.480;8.768;2022-09-02T14:43:44;37.60;35.20
38265;DHT22;24062;47.480;8.768;2022-09-02T14:46:21;37.20;35.90
38265;DHT22;24062;47.480;8.768;2022-09-02T14:48:53;36.80;36.20
38265;DHT22;24062;47.480;8.768;2022-09-02T14:51:21;37.20;36.90
38265;DHT22;24062;47.480;8.768;2022-09-02T14:53:48;37.30;36.60
38265;DHT22;24062;47.480;8.768;2022-09-02T14:56:48;36.80;36.00
38265;DHT22;24062;47.480;8.768;2022-09-02T14:59:17;35.80;36.20
38265;DHT22;24062;47.480;8.768;2022-09-02T15:01:46;35.00;36.50
38265;DHT22;24062;47.480;8.768;2022-09-02T15:04:15;34.10;36.80
38265;DHT22;24062;47.480;8.768;2022-09-02T15:06:44;33.40;37.40
38265;DHT22;24062;47.480;8.768;2022-09-02T15:09:11;32.90;38.40
38265;DHT22;24062;47.480;8.768;2022-09-02T15:11:41;32.40;38.10
38265;DHT22;24062;47.480;8.768;2022-09-02T15:14:10;32.00;38.80
38265;DHT22;24062;47.480;8.768;2022-09-02T15:16:38;31.80;39.20
38265;DHT22;24062;47.480;8.768;2022-09-02T15:19:05;31.40;39.60
38265;DHT22;24062;47.480;8.768;2022-09-02T15:21:32;31.00;39.60
38265;DHT22;24062;47.480;8.768;2022-09-02T15:23:59;30.50;40.10
38265;DHT22;24062;47.480;8.768;2022-09-02T15:26:26;30.20;40.30
38265;DHT22;24062;47.480;8.768;2022-09-02T15:28:53;29.90;40.60
38265;DHT22;24062;47.480;8.768;2022-09-02T15:31:20;29.60;40.90
38265;DHT22;24062;47.480;8.768;2022-09-02T15:33:51;29.30;41.10
38265;DHT22;24062;47.480;8.768;2022-09-02T15:36:18;29.10;41.50
38265;DHT22;24062;47.480;8.768;2022-09-02T15:38:46;28.90;41.80
38265;DHT22;24062;47.480;8.768;2022-09-02T15:41:15;28.70;42.20
38265;DHT22;24062;47.480;8.768;2022-09-02T15:43:42;28.50;42.50
38265;DHT22;24062;47.480;8.768;2022-09-02T15:46:16;28.40;42.80
38265;DHT22;24062;47.480;8.768;2022-09-02T15:48:44;28.30;43.10
38265;DHT22;24062;47.480;8.768;2022-09-02T15:51:13;28.20;43.30
38265;DHT22;24062;47.480;8.768;2022-09-02T15:53:41;28.20;43.60
38265;DHT22;24062;47.480;8.768;2022-09-02T15:56:14;28.10;44.30
38265;DHT22;24062;47.480;8.768;2022-09-02T15:58:42;27.80;43.80
38265;DHT22;24062;47.480;8.768;2022-09-02T16:01:09;27.60;44.50
38265;DHT22;24062;47.480;8.768;2022-09-02T16:03:36;27.30;44.20
38265;DHT22;24062;47.480;8.768;2022-09-02T16:06:04;27.20;44.50
38265;DHT22;24062;47.480;8.768;2022-09-02T16:08:34;27.00;44.60
38265;DHT22;24062;47.480;8.768;2022-09-02T16:11:03;26.90;45.00
38265;DHT22;24062;47.480;8.768;2022-09-02T16:13:31;26.80;45.20
38265;DHT22;24062;47.480;8.768;2022-09-02T16:16:00;26.70;45.30
38265;DHT22;24062;47.480;8.768;2022-09-02T16:18:26;26.50;45.60
38265;DHT22;24062;47.480;8.768;2022-09-02T16:20:53;26.40;45.70
38265;DHT22;24062;47.480;8.768;2022-09-02T16:23:20;26.30;45.90